Time;durP1;ratioP1;P1;durP2;ratioP2;P2;SDS_P1;SDS_P2;PMS_P1;PMS_P2;Temp;Humidity;BMP_temperature;BMP_pressure;BME280_temperature;BME280_humidity;BME280_pressure;Samples;Min_cycle;Max_cycle;Signal;HPM_P1;HPM_P2
2022/07/22 00:02:15;;;;;;;3.60;2.30;;;17.50;99.90;;;;;;5105497;28;20040;-36
2022/07/22 00:04:40;;;;;;;3.63;1.80;;;17.60;99.90;;;;;;5104761;28;20043;-34
2022/07/22 00:07:06;;;;;;;4.00;1.67;;;17.60;99.90;;;;;;5106323;28;20027;-35
2022/07/22 00:09:32;;;;;;;4.32;1.73;;;17.70;99.90;;;;;;5105099;28;20505;-36
2022/07/22 00:11:57;;;;;;;5.05;1.80;;;17.80;99.90;;;;;;5104895;28;20059;-37
2022/07/22 00:14:23;;;;;;;4.50;2.03;;;17.80;99.90;;;;;;5105660;28;20095;-36
2022/07/22 00:16:49;;;;;;;3.70;1.52;;;17.80;99.90;;;;;;5105770;28;20027;-35
2022/07/22 00:19:14;;;;;;;4.18;1.42;;;17.80;99.90;;;;;;5104686;28;20047;-35
2022/07/22 00:21:40;;;;;;;3.38;1.58;;;17.80;99.90;;;;;;5105494;28;20044;-35
2022/07/22 00:24:06;;;;;;;6.38;1.95;;;17.80;99.90;;;;;;5104528;28;20489;-36
2022/07/22 00:26:31;;;;;;;7.43;1.80;;;17.80;99.90;;;;;;5104987;28;20118;-35
2022/07/22 00:28:57;;;;;;;4.55;1.85;;;17.90;99.90;;;;;;5105617;28;20379;-36
2022/07/22 00:31:23;;;;;;;3.38;1.80;;;17.80;99.90;;;;;;5104536;28;20024;-35
2022/07/22 00:33:48;;;;;;;3.33;1.50;;;17.80;99.90;;;;;;5105603;28;20023;-35
2022/07/22 00:36:14;;;;;;;4.00;1.73;;;17.80;99.90;;;;;;5105825;28;20065;-36
2022/07/22 00:38:39;;;;;;;5.03;2.05;;;17.80;99.90;;;;;;5104023;28;20032;-35
2022/07/22 00:41:05;;;;;;;3.65;1.92;;;17.70;99.90;;;;;;5104930;28;20036;-35
2022/07/22 00:44:00;;;;;;;4.63;1.60;;;17.70;99.90;;;;;;5104658;28;20471;-35
2022/07/22 00:46:27;;;;;;;2.55;1.58;;;17.60;99.90;;;;;;5096474;28;20027;-35
2022/07/22 00:48:54;;;;;;;2.70;1.73;;;17.60;99.90;;;;;;5105535;28;20015;-37
2022/07/22 00:51:21;;;;;;;3.38;1.50;;;17.70;99.90;;;;;;5105304;28;20106;-37
2022/07/22 00:53:47;;;;;;;2.90;1.65;;;17.70;99.90;;;;;;5103969;28;20607;-35
2022/07/22 00:56:14;;;;;;;5.75;2.00;;;17.70;99.90;;;;;;5105085;28;20020;-35
2022/07/22 00:58:40;;;;;;;4.25;1.60;;;17.80;99.90;;;;;;5104953;28;20042;-36
2022/07/22 01:01:05;;;;;;;4.55;1.90;;;17.80;99.90;;;;;;5104869;28;20468;-36
2022/07/22 01:03:32;;;;;;;3.22;1.70;;;17.70;99.90;;;;;;5104344;28;20123;-36
2022/07/22 01:05:58;;;;;;;3.53;1.58;;;17.80;99.90;;;;;;5104958;28;20024;-35
2022/07/22 01:08:24;;;;;;;3.80;1.65;;;17.80;99.90;;;;;;5103771;28;20030;-35
2022/07/22 01:10:50;;;;;;;3.05;1.50;;;17.80;99.90;;;;;;5105408;28;20061;-36
2022/07/22 01:13:16;;;;;;;6.13;1.75;;;17.80;99.90;;;;;;5104352;28;20044;-35
2022/07/22 01:15:41;;;;;;;4.78;1.98;;;17.80;99.90;;;;;;5104553;28;20034;-36
2022/07/22 01:18:07;;;;;;;7.22;2.08;;;17.80;99.90;;;;;;5105376;28;20425;-36
2022/07/22 01:20:33;;;;;;;4.05;1.98;;;17.80;99.90;;;;;;5103364;28;20521;-35
2022/07/22 01:22:59;;;;;;;3.72;1.77;;;17.70;99.90;;;;;;5106951;28;20031;-35
2022/07/22 01:25:24;;;;;;;3.67;1.98;;;17.70;99.90;;;;;;5108587;28;20035;-36
2022/07/22 01:27:50;;;;;;;2.85;1.60;;;17.70;99.90;;;;;;5107264;28;20600;-36
2022/07/22 01:30:15;;;;;;;3.63;1.90;;;17.60;99.90;;;;;;5101468;28;20334;-36
2022/07/22 01:32:41;;;;;;;5.57;2.45;;;17.60;99.90;;;;;;5108966;28;20034;-35
2022/07/22 01:35:07;;;;;;;5.03;2.00;;;17.50;99.90;;;;;;5108200;28;20456;-34
2022/07/22 01:37:36;;;;;;;5.05;1.90;;;17.50;99.90;;;;;;5108337;28;20122;-37
2022/07/22 01:40:02;;;;;;;4.80;2.10;;;17.50;99.90;;;;;;5109759;28;20055;-36
2022/07/22 01:42:28;;;;;;;4.20;2.00;;;17.40;99.90;;;;;;5107675;28;20035;-36
2022/07/22 01:44:53;;;;;;;3.35;1.58;;;17.40;99.90;;;;;;5109479;28;20105;-36
2022/07/22 01:47:19;;;;;;;4.45;1.83;;;17.30;99.90;;;;;;5108229;28;20482;-36
2022/07/22 01:49:44;;;;;;;3.85;1.90;;;17.30;99.90;;;;;;5108143;28;20459;-36
2022/07/22 01:52:10;;;;;;;3.67;2.15;;;17.30;99.90;;;;;;5108305;28;20031;-34
2022/07/22 01:54:35;;;;;;;5.30;2.03;;;17.30;99.90;;;;;;5107661;28;20026;-36
2022/07/22 01:57:01;;;;;;;3.22;1.55;;;17.40;99.90;;;;;;5108297;28;20027;-35
2022/07/22 01:59:27;;;;;;;4.93;1.75;;;17.40;99.90;;;;;;5107888;28;20050;-35
2022/07/22 02:01:53;;;;;;;2.20;1.60;;;17.40;99.90;;;;;;5108421;28;20031;-37
2022/07/22 02:04:18;;;;;;;5.15;1.80;;;17.40;99.90;;;;;;5107327;28;20046;-35
2022/07/22 02:06:44;;;;;;;3.95;1.90;;;17.40;99.90;;;;;;5107467;28;20535;-36
2022/07/22 02:09:09;;;;;;;4.90;1.83;;;17.30;99.90;;;;;;5108304;28;20028;-36
2022/07/22 02:11:35;;;;;;;4.00;2.10;;;17.30;99.90;;;;;;5107114;28;20430;-35
2022/07/22 02:14:01;;;;;;;6.97;2.10;;;17.30;99.90;;;;;;5108047;28;20467;-36
2022/07/22 02:16:27;;;;;;;3.17;1.70;;;17.30;99.90;;;;;;5106873;28;20032;-36
2022/07/22 02:18:53;;;;;;;3.45;1.85;;;17.40;99.90;;;;;;5107921;28;20022;-34
2022/07/22 02:21:18;;;;;;;6.72;2.47;;;17.30;99.90;;;;;;5108332;28;20115;-35
2022/07/22 02:23:44;;;;;;;5.28;2.00;;;17.40;99.90;;;;;;5107272;28;20055;-34
2022/07/22 02:26:09;;;;;;;3.80;1.92;;;17.40;99.90;;;;;;5108993;28;20509;-33
2022/07/22 02:28:35;;;;;;;6.78;1.83;;;17.30;99.90;;;;;;5107528;28;20447;-35
2022/07/22 02:31:01;;;;;;;6.13;2.35;;;17.30;99.90;;;;;;5107314;28;20028;-35
2022/07/22 02:33:26;;;;;;;9.52;2.72;;;17.30;99.90;;;;;;5106974;28;20391;-35
2022/07/22 02:35:52;;;;;;;3.55;2.10;;;17.20;99.90;;;;;;5107645;28;20100;-35
2022/07/22 02:38:18;;;;;;;5.78;2.10;;;17.10;99.90;;;;;;5106670;28;20180;-35
2022/07/22 02:40:43;;;;;;;3.45;1.80;;;17.10;99.90;;;;;;5107262;28;20373;-36
2022/07/22 02:43:09;;;;;;;5.57;1.70;;;17.10;99.90;;;;;;5107423;28;20039;-35
2022/07/22 02:45:34;;;;;;;4.38;2.13;;;17.10;99.90;;;;;;5106185;28;20091;-36
2022/07/22 02:48:00;;;;;;;3.38;1.77;;;17.10;99.90;;;;;;5108044;28;20479;-35
2022/07/22 02:50:26;;;;;;;4.13;2.00;;;17.20;99.90;;;;;;5106978;28;20118;-35
2022/07/22 02:52:52;;;;;;;4.32;1.40;;;17.10;99.90;;;;;;5107230;28;20047;-35
2022/07/22 02:55:18;;;;;;;6.13;1.95;;;17.20;99.90;;;;;;5107284;28;20119;-36
2022/07/22 02:57:43;;;;;;;2.80;1.63;;;17.20;99.90;;;;;;5107136;28;20042;-35
2022/07/22 03:00:11;;;;;;;2.85;1.80;;;17.30;99.90;;;;;;5107041;28;20020;-33
2022/07/22 03:02:37;;;;;;;4.47;2.10;;;17.30;99.90;;;;;;5107071;28;20031;-34
2022/07/22 03:05:04;;;;;;;3.53;1.50;;;17.30;99.90;;;;;;5107142;28;20028;-35
2022/07/22 03:07:30;;;;;;;3.65;1.60;;;17.30;99.90;;;;;;5105728;28;20491;-35
2022/07/22 03:09:55;;;;;;;3.83;1.88;;;17.30;99.90;;;;;;5107298;28;20077;-36
2022/07/22 03:12:21;;;;;;;4.10;1.83;;;17.30;99.90;;;;;;5107005;28;20039;-33
2022/07/22 03:14:46;;;;;;;4.85;1.60;;;17.40;99.90;;;;;;5105916;28;20059;-34
2022/07/22 03:17:12;;;;;;;3.92;1.70;;;17.40;99.90;;;;;;5107248;28;20468;-34
2022/07/22 03:19:37;;;;;;;3.42;1.95;;;17.40;99.90;;;;;;5105827;28;20031;-34
2022/07/22 03:22:03;;;;;;;3.13;1.70;;;17.30;99.90;;;;;;5106300;28;20027;-36
2022/07/22 03:24:28;;;;;;;3.90;1.65;;;17.30;99.90;;;;;;5106091;28;20395;-36
2022/07/22 03:26:54;;;;;;;3.63;1.67;;;17.30;99.90;;;;;;5106415;28;20432;-36
2022/07/22 03:29:20;;;;;;;4.82;2.28;;;17.20;99.90;;;;;;5106504;28;20468;-35
2022/07/22 03:31:45;;;;;;;4.30;1.80;;;17.20;99.90;;;;;;5105845;28;20032;-35
2022/07/22 03:34:11;;;;;;;5.15;1.83;;;17.20;99.90;;;;;;5105598;28;20023;-35
2022/07/22 03:36:36;;;;;;;4.15;1.80;;;17.20;99.90;;;;;;5106526;28;20031;-36
2022/07/22 03:39:02;;;;;;;2.55;1.30;;;17.20;99.90;;;;;;5106485;28;20023;-35
2022/07/22 03:41:28;;;;;;;3.28;1.63;;;17.20;99.90;;;;;;5105614;28;20031;-36
2022/07/22 03:43:53;;;;;;;4.10;1.70;;;17.20;99.90;;;;;;5106345;28;20050;-35
2022/07/22 03:46:19;;;;;;;2.55;1.58;;;17.30;99.90;;;;;;5105265;28;20024;-36
2022/07/22 03:48:45;;;;;;;4.25;1.75;;;17.30;99.90;;;;;;5105447;28;20547;-35
2022/07/22 03:51:10;;;;;;;1.70;1.40;;;17.30;99.90;;;;;;5106948;28;20059;-34
2022/07/22 03:53:36;;;;;;;2.90;2.03;;;17.30;99.90;;;;;;5105881;28;20080;-36
2022/07/22 03:56:02;;;;;;;1.80;1.50;;;17.30;99.90;;;;;;5105906;28;20007;-36
2022/07/22 03:58:28;;;;;;;1.98;1.30;;;17.30;99.90;;;;;;5105784;28;20031;-36
2022/07/22 04:00:54;;;;;;;2.92;1.90;;;17.30;99.90;;;;;;5106051;28;20499;-37
2022/07/22 04:03:19;;;;;;;4.95;1.80;;;17.40;99.90;;;;;;5105248;28;20119;-35
2022/07/22 04:05:45;;;;;;;5.82;1.67;;;17.40;99.90;;;;;;5105773;28;20114;-36
2022/07/22 04:08:11;;;;;;;3.38;1.75;;;17.40;99.90;;;;;;5105934;28;20423;-35
2022/07/22 04:10:37;;;;;;;2.78;1.80;;;17.40;99.90;;;;;;5104268;28;20020;-41
2022/07/22 04:13:03;;;;;;;5.72;2.17;;;17.40;99.90;;;;;;5106370;28;20505;-36
2022/07/22 04:15:29;;;;;;;2.72;1.90;;;17.50;99.90;;;;;;5105168;28;20027;-35
2022/07/22 04:17:54;;;;;;;4.45;2.03;;;17.50;99.90;;;;;;5105002;28;20015;-36
2022/07/22 04:20:20;;;;;;;2.45;2.00;;;17.50;99.90;;;;;;5105184;28;20089;-35
2022/07/22 04:22:45;;;;;;;5.28;2.72;;;17.50;99.90;;;;;;5105401;28;20114;-34
2022/07/22 04:25:11;;;;;;;3.00;2.10;;;17.50;99.90;;;;;;5104807;28;20074;-34
2022/07/22 04:27:36;;;;;;;4.80;1.90;;;17.50;99.90;;;;;;5105101;28;20030;-33
2022/07/22 04:30:03;;;;;;;4.57;3.25;;;17.50;99.90;;;;;;5105708;28;20055;-35
2022/07/22 04:32:29;;;;;;;4.18;2.10;;;17.50;99.90;;;;;;5104626;28;20299;-34
2022/07/22 04:34:54;;;;;;;2.92;2.00;;;17.50;99.90;;;;;;5106255;28;20969;-34
2022/07/22 04:37:20;;;;;;;4.28;2.00;;;17.50;99.90;;;;;;5104832;28;20088;-34
2022/07/22 04:39:45;;;;;;;2.30;1.83;;;17.60;99.90;;;;;;5105367;28;20100;-34
2022/07/22 04:42:11;;;;;;;3.38;1.73;;;17.60;99.90;;;;;;5105550;28;20449;-34
2022/07/22 04:44:36;;;;;;;3.42;2.20;;;17.60;99.90;;;;;;5103979;28;20024;-35
2022/07/22 04:47:02;;;;;;;3.25;2.00;;;17.60;99.90;;;;;;5105364;28;20016;-37
2022/07/22 04:49:28;;;;;;;5.50;2.90;;;17.60;99.90;;;;;;5104644;28;20024;-36
2022/07/22 04:51:53;;;;;;;5.05;2.20;;;17.60;99.90;;;;;;5104804;28;20026;-34
2022/07/22 04:54:19;;;;;;;6.07;2.53;;;17.60;99.90;;;;;;5105033;28;20035;-35
2022/07/22 04:56:44;;;;;;;5.30;2.58;;;17.60;99.90;;;;;;5103950;28;20073;-35
2022/07/22 04:59:10;;;;;;;4.47;2.58;;;17.60;99.90;;;;;;5104598;28;20145;-36
2022/07/22 05:01:36;;;;;;;4.30;2.03;;;17.60;99.90;;;;;;5104426;28;20312;-37
2022/07/22 05:04:02;;;;;;;2.85;2.10;;;17.50;99.90;;;;;;5104984;28;20020;-36
2022/07/22 05:06:27;;;;;;;5.07;2.17;;;17.50;99.90;;;;;;5104468;28;20024;-36
2022/07/22 05:08:53;;;;;;;2.95;1.80;;;17.50;99.90;;;;;;5105220;28;20015;-35
2022/07/22 05:11:19;;;;;;;2.83;2.08;;;17.50;99.90;;;;;;5105363;28;20118;-35
2022/07/22 05:13:44;;;;;;;4.00;2.13;;;17.50;99.90;;;;;;5104140;28;20379;-36
2022/07/22 05:16:10;;;;;;;5.13;2.10;;;17.50;99.90;;;;;;5104618;28;20032;-35
2022/07/22 05:18:35;;;;;;;3.63;1.80;;;17.60;99.90;;;;;;5104345;28;20024;-35
2022/07/22 05:21:02;;;;;;;2.75;1.67;;;17.60;99.90;;;;;;5104285;28;20176;-35
2022/07/22 05:23:27;;;;;;;4.70;2.00;;;17.60;99.90;;;;;;5104066;28;20052;-35
2022/07/22 05:25:53;;;;;;;3.47;1.60;;;17.60;99.90;;;;;;5105197;28;20031;-36
2022/07/22 05:28:19;;;;;;;1.65;1.30;;;17.60;99.90;;;;;;5103655;28;20562;-35
2022/07/22 05:30:44;;;;;;;6.00;1.92;;;17.60;99.90;;;;;;5104757;28;20023;-35
2022/07/22 05:33:10;;;;;;;3.38;1.60;;;17.60;99.90;;;;;;5104723;28;20015;-35
2022/07/22 05:35:35;;;;;;;2.97;1.38;;;17.70;99.90;;;;;;5104051;28;20034;-35
2022/07/22 05:38:01;;;;;;;2.80;1.80;;;17.70;99.90;;;;;;5104943;28;20360;-35
2022/07/22 05:40:28;;;;;;;1.90;1.25;;;17.70;99.90;;;;;;5104117;28;20015;-35
2022/07/22 05:42:53;;;;;;;2.85;1.20;;;17.80;99.90;;;;;;5105053;28;20069;-35
2022/07/22 05:45:19;;;;;;;3.55;1.48;;;17.80;99.90;;;;;;5104388;28;20035;-35
2022/07/22 05:47:44;;;;;;;2.38;1.45;;;17.80;99.90;;;;;;5104041;28;20470;-36
2022/07/22 05:50:10;;;;;;;4.47;1.48;;;17.80;99.90;;;;;;5104822;28;20037;-36
2022/07/22 05:52:36;;;;;;;1.88;1.38;;;17.90;99.90;;;;;;5104419;28;20390;-35
2022/07/22 05:55:02;;;;;;;3.13;1.60;;;17.90;99.90;;;;;;5103736;28;20483;-34
2022/07/22 05:57:28;;;;;;;3.95;1.50;;;18.00;99.90;;;;;;5103966;28;20027;-36
2022/07/22 05:59:53;;;;;;;2.67;1.10;;;18.00;99.90;;;;;;5105008;28;20561;-36
2022/07/22 06:02:19;;;;;;;2.83;1.45;;;18.00;99.90;;;;;;5103411;28;20039;-36
2022/07/22 06:04:44;;;;;;;2.17;1.30;;;18.00;99.90;;;;;;5104026;28;20024;-35
2022/07/22 06:07:10;;;;;;;3.60;1.63;;;18.00;99.90;;;;;;5104995;28;20529;-35
2022/07/22 06:09:35;;;;;;;2.80;1.20;;;18.00;99.90;;;;;;5105220;28;20476;-36
2022/07/22 06:12:01;;;;;;;5.22;1.40;;;18.00;99.90;;;;;;5108428;28;20036;-35
2022/07/22 06:14:27;;;;;;;4.30;1.50;;;18.10;99.90;;;;;;5107941;28;20066;-34
2022/07/22 06:16:52;;;;;;;2.25;1.20;;;18.10;99.90;;;;;;5106989;28;20054;-35
2022/07/22 06:19:18;;;;;;;1.85;1.30;;;18.10;99.90;;;;;;5107942;28;20383;-36
2022/07/22 06:21:43;;;;;;;2.15;1.15;;;18.10;99.90;;;;;;5107591;28;20031;-36
2022/07/22 06:24:09;;;;;;;3.78;1.17;;;18.10;99.90;;;;;;5107702;28;20040;-36
2022/07/22 06:26:34;;;;;;;2.67;1.05;;;18.20;99.90;;;;;;5106793;28;20074;-34
2022/07/22 06:29:00;;;;;;;5.22;1.17;;;18.20;99.90;;;;;;5107926;28;20020;-35
2022/07/22 06:31:25;;;;;;;2.45;1.08;;;18.20;99.90;;;;;;5106610;28;20200;-35
2022/07/22 06:33:51;;;;;;;1.77;1.10;;;18.20;99.90;;;;;;5107580;28;20031;-34
2022/07/22 06:36:17;;;;;;;3.38;1.30;;;18.20;99.90;;;;;;5107589;28;20149;-34
2022/07/22 06:38:43;;;;;;;4.30;1.27;;;18.30;99.90;;;;;;5107351;28;20056;-35
2022/07/22 06:41:10;;;;;;;3.50;1.38;;;18.30;99.90;;;;;;5107804;28;20030;-35
2022/07/22 06:43:35;;;;;;;3.38;1.25;;;18.30;99.90;;;;;;5107136;28;20027;-35
2022/07/22 06:46:01;;;;;;;2.65;1.17;;;18.30;99.90;;;;;;5107198;28;20033;-34
2022/07/22 06:48:26;;;;;;;4.35;1.38;;;18.30;99.90;;;;;;5107584;28;20478;-35
2022/07/22 06:50:52;;;;;;;2.08;1.00;;;18.30;99.90;;;;;;5107045;28;20118;-35
2022/07/22 06:53:17;;;;;;;4.32;1.30;;;18.30;99.90;;;;;;5107241;28;20064;-35
2022/07/22 06:55:43;;;;;;;4.10;1.10;;;18.40;99.90;;;;;;5106853;28;20059;-35
2022/07/22 06:58:09;;;;;;;5.43;1.20;;;18.40;99.90;;;;;;5106661;28;20015;-35
2022/07/22 07:00:34;;;;;;;2.60;1.40;;;18.50;99.90;;;;;;5106661;28;20538;-34
2022/07/22 07:03:00;;;;;;;4.38;1.55;;;18.50;99.90;;;;;;5107449;28;20032;-35
2022/07/22 07:05:28;;;;;;;2.67;1.13;;;18.60;99.90;;;;;;5106408;28;20023;-34
2022/07/22 07:07:54;;;;;;;4.22;1.25;;;18.60;99.90;;;;;;5106968;28;20035;-35
2022/07/22 07:10:20;;;;;;;1.92;0.93;;;18.70;99.90;;;;;;5107546;28;20023;-34
2022/07/22 07:12:45;;;;;;;2.05;1.05;;;18.70;99.90;;;;;;5105814;28;20024;-35
2022/07/22 07:15:11;;;;;;;2.40;1.00;;;18.80;99.90;;;;;;5107446;28;20105;-35
2022/07/22 07:17:37;;;;;;;3.78;1.30;;;18.90;99.90;;;;;;5106561;28;20084;-33
2022/07/22 07:20:04;;;;;;;3.97;0.75;;;19.00;99.90;;;;;;5105580;28;20067;-36
2022/07/22 07:22:30;;;;;;;3.83;1.20;;;19.00;99.90;;;;;;5106278;28;20035;-36
2022/07/22 07:24:55;;;;;;;1.77;0.98;;;19.10;99.90;;;;;;5107061;28;20048;-36
2022/07/22 07:27:21;;;;;;;1.73;0.90;;;19.10;99.90;;;;;;5106030;28;20030;-36
2022/07/22 07:29:46;;;;;;;1.92;1.10;;;19.20;99.90;;;;;;5107188;28;20016;-33
2022/07/22 07:32:12;;;;;;;1.85;1.00;;;19.30;99.90;;;;;;5106968;28;20402;-35
2022/07/22 07:34:38;;;;;;;1.02;0.90;;;19.40;99.90;;;;;;5105816;28;20371;-35
2022/07/22 07:37:04;;;;;;;2.63;1.20;;;19.40;99.90;;;;;;5106500;28;20534;-34
2022/07/22 07:39:29;;;;;;;3.20;1.00;;;19.30;99.90;;;;;;5105774;28;20467;-35
2022/07/22 07:41:55;;;;;;;2.25;1.00;;;19.40;99.90;;;;;;5105173;28;20632;-36
2022/07/22 07:44:20;;;;;;;2.58;1.17;;;19.40;99.90;;;;;;5106071;28;20016;-35
2022/07/22 07:46:46;;;;;;;2.65;1.17;;;19.40;99.90;;;;;;5106309;28;20051;-36
2022/07/22 07:49:12;;;;;;;2.60;1.10;;;19.40;99.90;;;;;;5104944;28;20471;-35
2022/07/22 07:51:37;;;;;;;3.42;1.13;;;19.40;99.90;;;;;;5105836;28;20480;-35
2022/07/22 07:54:03;;;;;;;2.15;1.02;;;19.40;99.90;;;;;;5105769;28;20484;-35
2022/07/22 07:56:29;;;;;;;1.00;0.80;;;19.40;99.90;;;;;;5105473;28;20028;-36
2022/07/22 07:58:54;;;;;;;2.35;1.10;;;19.40;99.90;;;;;;5105951;28;20027;-35
2022/07/22 08:01:20;;;;;;;5.15;1.20;;;19.40;99.90;;;;;;5104651;28;20376;-35
2022/07/22 08:03:46;;;;;;;2.38;1.10;;;19.50;99.90;;;;;;5105562;28;20026;-34
2022/07/22 08:06:11;;;;;;;1.65;1.10;;;19.60;99.90;;;;;;5106258;28;20038;-35
2022/07/22 08:08:37;;;;;;;2.10;1.00;;;19.70;99.90;;;;;;5104590;28;20019;-36
2022/07/22 08:11:03;;;;;;;3.22;1.30;;;19.80;99.90;;;;;;5106101;28;20023;-34
2022/07/22 08:13:28;;;;;;;2.90;1.20;;;19.90;99.90;;;;;;5105378;28;20391;-34
2022/07/22 08:15:54;;;;;;;0.95;0.90;;;19.90;99.90;;;;;;5105069;28;20615;-35
2022/07/22 08:18:21;;;;;;;1.67;1.10;;;20.00;99.90;;;;;;5106013;28;20110;-34
2022/07/22 08:20:46;;;;;;;4.00;1.20;;;20.00;99.90;;;;;;5105539;28;20028;-35
2022/07/22 08:23:12;;;;;;;3.70;1.45;;;20.00;99.90;;;;;;5105403;28;20470;-35
2022/07/22 08:25:38;;;;;;;4.18;1.38;;;20.10;99.90;;;;;;5104963;28;20058;-35
2022/07/22 08:28:04;;;;;;;2.38;1.42;;;20.20;99.90;;;;;;5105626;28;20100;-35
2022/07/22 08:30:30;;;;;;;2.20;1.13;;;20.20;99.90;;;;;;5104153;28;20090;-35
2022/07/22 08:32:56;;;;;;;2.22;1.10;;;20.30;99.90;;;;;;5105910;28;20035;-35
2022/07/22 08:35:22;;;;;;;2.90;1.20;;;20.40;99.90;;;;;;5105544;28;20034;-35
2022/07/22 08:37:47;;;;;;;3.33;1.35;;;20.40;99.90;;;;;;5104549;28;20031;-34
2022/07/22 08:40:14;;;;;;;2.55;1.50;;;20.40;99.90;;;;;;5105462;28;20050;-35
2022/07/22 08:42:42;;;;;;;2.78;1.40;;;20.40;99.90;;;;;;5105023;28;20039;-35
2022/07/22 08:45:08;;;;;;;2.40;1.40;;;20.40;99.90;;;;;;5104736;28;20356;-35
2022/07/22 08:47:34;;;;;;;2.13;1.15;;;20.40;99.90;;;;;;5105170;28;20813;-35
2022/07/22 08:50:00;;;;;;;3.15;1.20;;;20.50;99.90;;;;;;5104954;28;20016;-35
2022/07/22 08:52:26;;;;;;;2.28;1.10;;;20.50;99.90;;;;;;5104279;28;20398;-36
2022/07/22 08:54:51;;;;;;;2.88;1.10;;;20.60;99.90;;;;;;5105246;28;20084;-34
2022/07/22 08:57:18;;;;;;;2.15;1.50;;;20.60;99.90;;;;;;5105195;28;20019;-34
2022/07/22 08:59:55;;;;;;;2.30;1.00;;;20.60;99.90;;;;;;5104396;28;20475;-35
2022/07/22 09:02:22;;;;;;;2.03;1.10;;;20.70;99.90;;;;;;5102547;28;20032;-35
2022/07/22 09:04:57;;;;;;;2.20;1.65;;;20.60;99.90;;;;;;5104318;28;20024;-35
2022/07/22 09:07:34;;;;;;;2.67;1.30;;;20.60;99.90;;;;;;5105302;28;20034;-35
2022/07/22 09:10:01;;;;;;;3.88;1.52;;;20.60;99.90;;;;;;5105417;28;20024;-36
2022/07/22 09:12:32;;;;;;;1.67;1.15;;;20.60;99.90;;;;;;5102813;28;20379;-35
2022/07/22 09:14:59;;;;;;;2.70;1.30;;;20.60;99.90;;;;;;5105098;28;20034;-35
2022/07/22 09:17:36;;;;;;;2.17;1.30;;;20.60;99.90;;;;;;5104301;28;20027;-35
2022/07/22 09:20:05;;;;;;;1.95;1.20;;;20.60;99.90;;;;;;5104617;28;20089;-36
2022/07/22 09:22:45;;;;;;;3.20;1.38;;;20.50;99.90;;;;;;5104482;28;20032;-36
2022/07/22 09:25:31;;;;;;;2.70;1.20;;;20.50;99.90;;;;;;5104897;28;20133;-35
2022/07/22 09:28:06;;;;;;;2.45;1.00;;;20.40;99.90;;;;;;5103656;28;20497;-35
2022/07/22 09:30:34;;;;;;;1.88;1.10;;;20.50;99.90;;;;;;5104502;28;20023;-36
2022/07/22 09:32:59;;;;;;;3.10;1.10;;;20.40;99.90;;;;;;5104598;28;20106;-36
2022/07/22 09:35:25;;;;;;;2.65;1.15;;;20.40;99.90;;;;;;5105124;28;20531;-37
2022/07/22 09:38:02;;;;;;;2.15;1.20;;;20.40;99.90;;;;;;5105043;28;20031;-35
2022/07/22 09:40:34;;;;;;;1.63;0.90;;;20.50;99.90;;;;;;5104027;28;20027;-37
2022/07/22 09:43:05;;;;;;;1.33;1.10;;;20.50;99.90;;;;;;5104501;28;20118;-34
2022/07/22 09:45:32;;;;;;;4.32;1.27;;;20.40;99.90;;;;;;5088045;28;20399;-35
2022/07/22 09:47:59;;;;;;;1.38;0.90;;;20.40;99.90;;;;;;5103023;28;20031;-35
2022/07/22 09:50:28;;;;;;;1.33;0.90;;;20.40;99.90;;;;;;5108309;28;20023;-35
2022/07/22 09:52:57;;;;;;;1.67;0.90;;;20.40;99.90;;;;;;5108240;28;20098;-34
2022/07/22 09:55:24;;;;;;;1.40;0.80;;;20.40;99.90;;;;;;5107363;28;20560;-35
2022/07/22 09:57:51;;;;;;;1.52;0.82;;;20.50;99.90;;;;;;5108768;28;20055;-34
2022/07/22 10:00:23;;;;;;;1.80;0.82;;;20.50;99.90;;;;;;5108408;28;20024;-35
2022/07/22 10:02:51;;;;;;;1.40;0.93;;;20.60;99.90;;;;;;5106892;28;20390;-35
2022/07/22 10:05:20;;;;;;;1.42;0.93;;;20.60;99.90;;;;;;5108127;28;20356;-35
2022/07/22 10:07:47;;;;;;;1.27;0.77;;;20.60;99.90;;;;;;5106752;28;20030;-43
2022/07/22 10:10:19;;;;;;;2.08;0.90;;;20.70;99.90;;;;;;5108272;28;20049;-40
2022/07/22 10:12:49;;;;;;;2.28;0.90;;;20.70;99.90;;;;;;5107924;28;20027;-36
2022/07/22 10:15:15;;;;;;;2.97;1.00;;;20.80;99.90;;;;;;5107580;28;20018;-34
2022/07/22 10:17:44;;;;;;;1.63;0.88;;;20.80;99.90;;;;;;5108476;28;20019;-35
2022/07/22 10:20:11;;;;;;;1.83;1.00;;;20.80;99.90;;;;;;5107991;28;20243;-35
2022/07/22 10:22:40;;;;;;;1.38;0.95;;;20.80;99.90;;;;;;5106524;28;20035;-35
2022/07/22 10:25:06;;;;;;;1.60;1.00;;;20.90;99.90;;;;;;5107917;28;20052;-36
2022/07/22 10:27:50;;;;;;;1.13;0.90;;;21.00;99.90;;;;;;5107608;28;20034;-35
2022/07/22 10:30:22;;;;;;;2.10;0.95;;;21.10;99.80;;;;;;5106854;28;20038;-36
2022/07/22 10:33:14;;;;;;;2.03;1.00;;;21.20;99.80;;;;;;5107638;28;20148;-35
2022/07/22 10:36:00;;;;;;;1.23;0.85;;;21.40;99.90;;;;;;5106323;28;20024;-35
2022/07/22 10:38:27;;;;;;;1.42;1.00;;;21.60;99.70;;;;;;5106533;28;20070;-36
2022/07/22 10:41:09;;;;;;;3.20;1.10;;;21.80;99.50;;;;;;5107633;28;20023;-36
2022/07/22 10:43:41;;;;;;;2.47;0.80;;;21.90;99.10;;;;;;5107242;28;20036;-34
2022/07/22 10:46:06;;;;;;;1.38;1.00;;;21.90;99.00;;;;;;5107826;28;20061;-34
2022/07/22 10:48:32;;;;;;;2.50;1.00;;;22.00;99.00;;;;;;5107355;28;20241;-35
2022/07/22 10:51:16;;;;;;;1.92;0.98;;;22.10;98.90;;;;;;5106804;28;20524;-40
2022/07/22 10:53:53;;;;;;;2.88;1.20;;;22.10;98.70;;;;;;5106871;28;20383;-36
2022/07/22 10:56:24;;;;;;;1.73;1.00;;;22.20;98.50;;;;;;5107395;28;20020;-35
2022/07/22 10:58:59;;;;;;;3.40;1.17;;;22.20;98.50;;;;;;5106922;28;20405;-35
2022/07/22 11:01:30;;;;;;;1.30;0.88;;;22.20;98.60;;;;;;5106852;28;20027;-35
2022/07/22 11:04:12;;;;;;;1.42;0.85;;;22.20;98.40;;;;;;5106402;28;20027;-34
2022/07/22 11:06:37;;;;;;;1.57;0.93;;;22.20;98.10;;;;;;5105529;28;20020;-35
2022/07/22 11:09:06;;;;;;;1.98;1.00;;;22.20;98.20;;;;;;5107834;28;20378;-35
2022/07/22 11:11:38;;;;;;;1.60;0.95;;;22.20;98.10;;;;;;5106153;28;20572;-36
2022/07/22 11:14:12;;;;;;;1.75;0.95;;;22.30;97.90;;;;;;5107097;28;20463;-35
2022/07/22 11:16:38;;;;;;;2.97;1.00;;;22.30;97.80;;;;;;5105829;28;20031;-35
2022/07/22 11:19:06;;;;;;;2.47;1.20;;;22.30;97.50;;;;;;5106416;28;20100;-34
2022/07/22 11:21:33;;;;;;;4.13;1.23;;;22.30;97.40;;;;;;5106416;28;20066;-35
2022/07/22 11:24:03;;;;;;;1.50;1.08;;;22.30;97.10;;;;;;5107198;28;20055;-36
2022/07/22 11:26:44;;;;;;;2.45;1.00;;;22.30;97.10;;;;;;5105634;28;20556;-35
2022/07/22 11:29:14;;;;;;;1.23;0.80;;;22.30;97.10;;;;;;5106549;28;20439;-35
2022/07/22 11:31:40;;;;;;;1.45;1.10;;;22.40;97.30;;;;;;5106525;28;20279;-39
2022/07/22 11:34:10;;;;;;;1.60;1.10;;;22.50;96.80;;;;;;5105981;28;20450;-36
2022/07/22 11:36:38;;;;;;;2.10;1.00;;;22.60;96.70;;;;;;5105601;28;20482;-33
2022/07/22 11:39:04;;;;;;;1.40;0.90;;;22.60;96.50;;;;;;5105956;28;20031;-34
2022/07/22 11:41:31;;;;;;;1.27;0.90;;;22.60;96.50;;;;;;5105696;28;20035;-35
2022/07/22 11:43:57;;;;;;;2.45;1.10;;;22.70;96.50;;;;;;5106546;27;20509;-35
2022/07/22 11:46:25;;;;;;;1.58;1.10;;;22.70;96.30;;;;;;5105237;28;20042;-34
2022/07/22 11:48:51;;;;;;;1.40;1.10;;;22.70;96.20;;;;;;5106614;28;20031;-35
2022/07/22 11:51:17;;;;;;;1.25;0.88;;;22.80;96.20;;;;;;5105162;28;20543;-35
2022/07/22 11:53:42;;;;;;;2.22;1.00;;;22.80;96.30;;;;;;5105309;28;20114;-35
2022/07/22 11:56:09;;;;;;;1.52;1.00;;;22.80;96.20;;;;;;5106411;28;20551;-35
2022/07/22 11:58:42;;;;;;;1.35;1.02;;;22.80;96.10;;;;;;5094664;28;20061;-35
2022/07/22 12:01:10;;;;;;;3.25;1.10;;;22.70;95.80;;;;;;5105373;28;20114;-34
2022/07/22 12:03:37;;;;;;;2.10;1.17;;;22.60;96.00;;;;;;5105658;28;20034;-36
2022/07/22 12:06:06;;;;;;;3.13;0.80;;;22.70;96.00;;;;;;5105622;28;20131;-36
2022/07/22 12:08:33;;;;;;;0.65;0.65;;;22.70;95.90;;;;;;5104596;28;20144;-35
2022/07/22 12:10:59;;;;;;;1.95;1.13;;;22.70;95.90;;;;;;5105895;28;20471;-35
2022/07/22 12:13:29;;;;;;;2.65;1.00;;;22.80;95.80;;;;;;5105636;28;20027;-35
2022/07/22 12:15:55;;;;;;;3.17;1.30;;;22.90;95.70;;;;;;5104889;28;20484;-35
2022/07/22 12:18:26;;;;;;;2.72;1.13;;;22.90;95.60;;;;;;5105657;28;20490;-35
2022/07/22 12:20:53;;;;;;;1.90;0.93;;;22.90;95.40;;;;;;5106493;28;20030;-35
2022/07/22 12:23:19;;;;;;;2.42;1.20;;;22.90;95.40;;;;;;5104402;28;20378;-35
2022/07/22 12:25:50;;;;;;;2.15;0.90;;;22.90;95.20;;;;;;5105446;28;20027;-36
2022/07/22 12:28:16;;;;;;;1.05;0.82;;;22.80;95.30;;;;;;5105212;28;20502;-34
2022/07/22 12:30:42;;;;;;;1.88;1.02;;;22.80;95.30;;;;;;5104760;28;20055;-36
2022/07/22 12:33:15;;;;;;;1.10;1.00;;;22.80;95.30;;;;;;5105861;28;20055;-35
2022/07/22 12:35:41;;;;;;;2.30;1.15;;;22.80;95.30;;;;;;5105065;28;20027;-36
2022/07/22 12:38:09;;;;;;;1.67;0.90;;;22.90;95.10;;;;;;5104959;28;20024;-36
2022/07/22 12:40:35;;;;;;;1.52;1.00;;;22.80;95.10;;;;;;5104642;28;20590;-35
2022/07/22 12:43:06;;;;;;;2.90;1.35;;;22.70;95.20;;;;;;5104723;28;20118;-35
2022/07/22 12:45:34;;;;;;;4.22;1.30;;;22.70;95.20;;;;;;5104938;28;20364;-35
2022/07/22 12:48:06;;;;;;;1.80;1.17;;;22.70;95.40;;;;;;5105310;28;20019;-35